Time;durP1;ratioP1;P1;durP2;ratioP2;P2;SDS_P1;SDS_P2;PMS_P1;PMS_P2;Temp;Humidity;BMP_temperature;BMP_pressure;BME280_temperature;BME280_humidity;BME280_pressure;Samples;Min_cycle;Max_cycle;Signal;HPM_P1;HPM_P2
2024/01/15 00:01:58;;;;;;;0.70;0.70;;;;;;;-1.29;81.80;98300.59;5095726;28;20044;-76
2024/01/15 00:04:28;;;;;;;2.45;1.85;;;;;;;-1.30;81.86;98304.78;5097203;28;20044;-77
2024/01/15 00:06:57;;;;;;;1.25;1.23;;;;;;;-1.31;81.75;98302.22;5095834;28;20036;-77
2024/01/15 00:09:27;;;;;;;2.90;2.20;;;;;;;-1.39;82.06;98284.53;5097070;28;20067;-76
2024/01/15 00:11:58;;;;;;;5.10;3.15;;;;;;;-1.44;81.84;98284.44;5095907;28;20050;-76
2024/01/15 00:14:27;;;;;;;4.55;4.15;;;;;;;-1.48;81.66;98272.69;5097056;28;20036;-77
2024/01/15 00:16:56;;;;;;;1.17;1.15;;;;;;;-1.50;81.91;98271.81;5095765;28;20504;-77
2024/01/15 00:19:26;;;;;;;1.02;1.02;;;;;;;-1.54;81.81;98265.03;5096708;28;20106;-76
2024/01/15 00:21:57;;;;;;;0.98;0.93;;;;;;;-1.55;82.16;98265.00;5095605;28;20494;-76
2024/01/15 00:24:26;;;;;;;0.75;0.75;;;;;;;-1.93;81.95;98201.59;5096765;28;20048;-76
2024/01/15 00:26:55;;;;;;;4.80;3.80;;;;;;;-1.60;81.91;98259.88;5095449;28;20494;-76
2024/01/15 00:29:25;;;;;;;;;;;;;;;-1.61;81.81;98258.19;5097162;28;20044;-76
2024/01/15 00:31:54;;;;;;;0.73;0.73;;;;;;;-1.59;81.83;98251.59;5095509;28;19920;-76
2024/01/15 00:34:23;;;;;;;3.93;2.57;;;;;;;-1.63;82.01;98249.78;5078054;28;20063;-76
2024/01/15 00:36:52;;;;;;;1.35;1.25;;;;;;;-1.59;81.87;98246.56;5096502;28;20354;-76
2024/01/15 00:39:21;;;;;;;1.75;1.65;;;;;;;-1.65;82.20;98250.56;5095559;28;20040;-76
2024/01/15 00:41:50;;;;;;;4.68;1.77;;;;;;;-1.68;81.79;98251.34;5095219;28;20036;-76
2024/01/15 00:44:19;;;;;;;1.88;1.77;;;;;;;-1.76;81.64;98260.34;5078389;28;20145;-76
2024/01/15 00:46:49;;;;;;;3.47;1.92;;;;;;;-1.79;82.06;98252.75;5096377;28;20555;-76
2024/01/15 00:49:18;;;;;;;1.85;1.75;;;;;;;-1.80;81.91;98256.03;5095363;28;20052;-76
2024/01/15 00:51:48;;;;;;;1.98;0.82;;;;;;;-1.77;82.15;98240.28;5096282;28;20032;-76
2024/01/15 00:54:17;;;;;;;1.65;1.55;;;;;;;-1.78;82.19;98229.44;5095673;28;20559;-76
2024/01/15 00:56:46;;;;;;;1.08;1.02;;;;;;;-1.83;81.81;98221.00;5096471;28;20040;-76
2024/01/15 00:59:16;;;;;;;1.20;1.15;;;;;;;-1.83;82.39;98226.00;5096180;28;20036;-76
2024/01/15 01:01:45;;;;;;;1.58;1.42;;;;;;;-1.85;82.12;98239.25;5095853;28;20052;-76
2024/01/15 01:04:16;;;;;;;0.40;0.40;;;;;;;-1.89;81.99;98235.81;5095351;28;20148;-76
2024/01/15 01:06:45;;;;;;;5.35;2.50;;;;;;;-1.87;82.30;98238.38;5095679;28;20056;-75
2024/01/15 01:09:14;;;;;;;2.38;2.28;;;;;;;-1.87;82.07;98243.38;5095573;28;20047;-76
2024/01/15 01:11:44;;;;;;;0.93;0.93;;;;;;;-1.90;82.24;98243.31;5095881;28;20044;-75
2024/01/15 01:14:13;;;;;;;1.70;1.20;;;;;;;-2.03;82.29;98212.16;5095776;28;20131;-75
2024/01/15 01:16:42;;;;;;;2.20;2.08;;;;;;;-1.97;82.41;98231.47;5095464;28;20507;-76
2024/01/15 01:19:11;;;;;;;0.80;0.80;;;;;;;-2.05;81.95;98244.63;5095791;28;20043;-76
2024/01/15 01:21:42;;;;;;;3.92;3.63;;;;;;;-2.08;81.86;98233.69;5095388;28;20600;-76
2024/01/15 01:24:11;;;;;;;0.70;0.70;;;;;;;-2.20;81.85;98239.22;5095677;28;20066;-76
2024/01/15 01:26:40;;;;;;;1.60;1.50;;;;;;;-2.25;81.81;98233.25;5095493;28;20036;-75
2024/01/15 01:29:09;;;;;;;2.08;1.95;;;;;;;-2.28;81.75;98220.69;5095564;28;20035;-76
2024/01/15 01:31:37;;;;;;;1.98;1.52;;;;;;;-2.31;81.92;98219.78;5095509;28;20036;-76
2024/01/15 01:34:06;;;;;;;1.00;1.00;;;;;;;-2.32;82.33;98218.91;5095127;28;20089;-76
2024/01/15 01:36:35;;;;;;;1.65;1.55;;;;;;;-2.41;82.02;98210.34;5095312;28;20035;-76
2024/01/15 01:39:06;;;;;;;2.35;2.25;;;;;;;-2.37;82.19;98207.09;5095297;28;20051;-75
2024/01/15 01:41:35;;;;;;;7.00;3.40;;;;;;;-2.40;81.95;98204.56;5094335;28;20083;-76
2024/01/15 01:44:05;;;;;;;2.70;1.80;;;;;;;-2.41;82.22;98205.34;5095490;28;20093;-75
2024/01/15 01:46:35;;;;;;;;;;;;;;;-2.47;82.60;98190.22;5095271;28;20093;-75
2024/01/15 01:49:05;;;;;;;;;;;;;;;-2.49;82.15;98180.19;5095641;28;19920;-75
2024/01/15 01:51:36;;;;;;;2.47;2.28;;;;;;;-2.59;82.01;98170.75;5093690;28;20247;-75
2024/01/15 01:54:09;;;;;;;2.80;1.65;;;;;;;-2.59;82.82;98172.44;5094512;28;20036;-75
2024/01/15 01:56:38;;;;;;;4.85;3.50;;;;;;;-2.63;82.45;98159.00;5095195;28;20044;-75
2024/01/15 01:59:08;;;;;;;3.28;2.83;;;;;;;-2.62;82.68;98159.84;5093326;28;20044;-75
2024/01/15 02:01:37;;;;;;;7.20;5.85;;;;;;;-2.64;82.30;98163.97;5095286;28;20048;-75
2024/01/15 02:04:06;;;;;;;2.35;1.52;;;;;;;-2.65;82.34;98182.22;5093895;28;20072;-75
2024/01/15 02:06:36;;;;;;;2.53;1.83;;;;;;;-2.65;82.47;98177.25;5093504;28;20486;-75
2024/01/15 02:09:06;;;;;;;5.93;2.55;;;;;;;-2.71;82.38;98166.28;5095033;28;20097;-75
2024/01/15 02:11:35;;;;;;;1.17;1.15;;;;;;;-2.76;82.63;98150.34;5094807;28;20040;-75
2024/01/15 02:14:04;;;;;;;2.47;2.33;;;;;;;-2.78;82.45;98149.47;5094554;28;20052;-75
2024/01/15 02:16:33;;;;;;;5.57;3.33;;;;;;;-2.79;82.53;98150.28;5092566;28;20113;-75
2024/01/15 02:19:02;;;;;;;3.13;2.83;;;;;;;-2.75;82.19;98146.19;5094681;28;20044;-76
2024/01/15 02:21:33;;;;;;;2.58;2.45;;;;;;;-2.81;82.75;98141.06;5092911;28;20276;-76
2024/01/15 02:24:05;;;;;;;2.35;2.15;;;;;;;-2.82;82.61;98140.22;5094658;28;20121;-76
2024/01/15 02:26:35;;;;;;;1.52;1.42;;;;;;;-2.77;82.47;98133.69;5095035;28;20043;-76
2024/01/15 02:29:05;;;;;;;1.75;1.65;;;;;;;-2.79;81.95;98134.47;5094589;28;20043;-76
2024/01/15 02:31:34;;;;;;;4.13;3.83;;;;;;;-2.87;81.76;98125.91;5094450;28;20048;-76
2024/01/15 02:34:03;;;;;;;1.33;1.23;;;;;;;-2.91;82.33;98119.16;5094237;28;20035;-76
2024/01/15 02:36:32;;;;;;;2.00;1.90;;;;;;;-3.02;81.70;98106.38;5094293;28;20046;-76
2024/01/15 02:39:02;;;;;;;1.58;1.48;;;;;;;-3.06;81.88;98114.59;5094214;28;20042;-76
2024/01/15 02:41:32;;;;;;;0.75;0.75;;;;;;;-3.10;81.84;98122.81;5092736;28;20047;-76
2024/01/15 02:44:01;;;;;;;7.15;3.35;;;;;;;-3.07;82.52;98117.06;5093968;28;20048;-76
2024/01/15 02:46:29;;;;;;;2.22;2.08;;;;;;;-3.02;81.78;98118.88;5093026;28;20044;-76
2024/01/15 02:48:58;;;;;;;2.38;2.25;;;;;;;-3.03;81.99;98119.69;5092934;28;20494;-76
2024/01/15 02:51:27;;;;;;;1.33;1.23;;;;;;;-3.13;82.26;98119.38;5094109;28;20036;-76
2024/01/15 02:53:56;;;;;;;4.15;3.80;;;;;;;-3.12;81.93;98114.41;5093722;28;20131;-76
2024/01/15 02:56:25;;;;;;;3.80;3.45;;;;;;;-3.07;82.50;98112.91;5092809;28;20127;-76
2024/01/15 02:58:55;;;;;;;2.28;1.58;;;;;;;-3.03;82.29;98113.84;5094105;28;20055;-76
2024/01/15 03:01:24;;;;;;;1.75;1.65;;;;;;;-3.02;82.07;98105.53;5094168;28;20394;-76
2024/01/15 03:03:55;;;;;;;1.58;1.48;;;;;;;-3.07;82.36;98097.94;5094474;28;20044;-76
2024/01/15 03:06:24;;;;;;;1.88;1.77;;;;;;;-3.13;82.05;98092.78;5093824;28;20078;-76
2024/01/15 03:08:53;;;;;;;2.03;1.92;;;;;;;-3.13;82.10;98092.78;5075811;28;20141;-76
2024/01/15 03:11:22;;;;;;;3.05;2.83;;;;;;;-3.08;82.27;98096.25;5093564;28;20043;-76
2024/01/15 03:13:51;;;;;;;5.50;2.87;;;;;;;-3.01;82.98;98098.13;5093869;28;20044;-76
2024/01/15 03:16:21;;;;;;;3.28;3.03;;;;;;;-2.96;82.87;98089.09;5093882;28;20041;-76
2024/01/15 03:18:50;;;;;;;3.83;3.53;;;;;;;-2.90;83.24;98086.75;5093632;28;20052;-76
2024/01/15 03:21:19;;;;;;;1.80;1.70;;;;;;;-2.89;83.03;98078.47;5094051;28;20385;-76
2024/01/15 03:23:48;;;;;;;15.95;3.42;;;;;;;-2.73;83.40;98080.53;5093650;28;20501;-76
2024/01/15 03:26:17;;;;;;;2.03;1.92;;;;;;;-2.67;83.07;98079.00;5094812;28;20394;-76
2024/01/15 03:28:46;;;;;;;2.80;2.17;;;;;;;-2.62;83.10;98078.31;5097808;28;20153;-75
2024/01/15 03:31:15;;;;;;;0.52;0.52;;;;;;;-2.58;83.12;98069.25;5097892;28;20110;-76
2024/01/15 03:33:45;;;;;;;4.15;2.85;;;;;;;-2.58;83.39;98059.25;5097692;28;20045;-76
2024/01/15 03:36:14;;;;;;;0.95;0.95;;;;;;;-2.43;83.52;98089.59;5097765;28;20032;-76
2024/01/15 03:38:43;;;;;;;4.72;3.17;;;;;;;-2.42;83.67;98086.28;5097961;28;20043;-76
2024/01/15 03:41:12;;;;;;;0.80;0.80;;;;;;;-2.42;83.12;98088.78;5096478;28;20060;-76
2024/01/15 03:43:41;;;;;;;1.00;1.00;;;;;;;-2.42;83.65;98068.78;5096285;28;20051;-76
2024/01/15 03:46:10;;;;;;;11.18;4.00;;;;;;;-2.42;83.38;98066.28;5096408;28;20036;-76
2024/01/15 03:48:39;;;;;;;12.27;4.00;;;;;;;-2.33;83.47;98082.38;5096005;28;20131;-76
2024/01/15 03:51:10;;;;;;;0.88;0.88;;;;;;;-2.39;83.54;98083.84;5097107;28;20052;-76
2024/01/15 03:53:39;;;;;;;5.18;3.35;;;;;;;-2.39;83.53;98093.84;5096966;28;20453;-76
2024/01/15 03:56:08;;;;;;;3.03;2.72;;;;;;;-2.47;83.73;98087.84;5097225;28;20440;-76
2024/01/15 03:58:37;;;;;;;2.15;1.45;;;;;;;-2.40;83.19;98085.50;5095853;28;20036;-76
2024/01/15 04:01:10;;;;;;;1.55;1.45;;;;;;;-2.39;83.55;98073.88;5095998;28;20040;-76
2024/01/15 04:03:39;;;;;;;3.00;2.80;;;;;;;-2.39;83.60;98071.38;5096955;28;20039;-76
2024/01/15 04:06:09;;;;;;;1.27;1.27;;;;;;;-2.39;83.57;98066.38;5079044;28;20055;-76
2024/01/15 04:08:39;;;;;;;3.20;3.00;;;;;;;-2.43;83.52;98057.13;5096036;28;20071;-76
2024/01/15 04:11:08;;;;;;;1.50;1.40;;;;;;;-2.48;83.48;98051.19;5095737;28;20498;-76
2024/01/15 04:13:37;;;;;;;4.05;1.13;;;;;;;-2.54;83.42;98051.06;5078714;28;20110;-76
2024/01/15 04:16:09;;;;;;;1.80;1.70;;;;;;;-2.54;83.55;98066.03;5097029;28;20032;-77
2024/01/15 04:18:38;;;;;;;3.67;2.08;;;;;;;-2.57;83.58;98060.97;5095552;28;20096;-76
2024/01/15 04:21:07;;;;;;;1.15;1.10;;;;;;;-2.72;83.38;98062.28;5095434;28;20547;-76
2024/01/15 04:23:37;;;;;;;1.50;1.40;;;;;;;-2.79;83.56;98065.44;5078501;28;20047;-75
2024/01/15 04:26:06;;;;;;;4.53;3.28;;;;;;;-2.83;83.17;98063.63;5096938;28;20093;-75
2024/01/15 04:28:35;;;;;;;2.78;2.58;;;;;;;-2.88;83.21;98061.84;5096619;28;20032;-75
2024/01/15 04:31:04;;;;;;;1.38;1.30;;;;;;;-2.91;83.08;98050.16;5096986;28;20036;-75
2024/01/15 04:33:33;;;;;;;3.53;1.92;;;;;;;-2.86;83.24;98053.59;5095566;28;20117;-74
2024/01/15 04:36:04;;;;;;;4.57;3.60;;;;;;;-2.93;83.28;98064.22;5096539;28;20500;-75
2024/01/15 04:38:36;;;;;;;4.82;4.13;;;;;;;-2.99;83.32;98051.59;5095779;28;20047;-75
2024/01/15 04:41:06;;;;;;;1.20;1.20;;;;;;;-3.00;83.27;98057.38;5096494;28;20040;-74
2024/01/15 04:43:35;;;;;;;1.33;1.23;;;;;;;-3.07;83.20;98058.03;5096437;28;20050;-75
2024/01/15 04:46:07;;;;;;;8.13;4.15;;;;;;;-3.16;83.16;98057.78;5096519;28;20048;-75
2024/01/15 04:48:35;;;;;;;3.13;2.90;;;;;;;-3.21;82.91;98050.97;5096248;28;20039;-75
2024/01/15 04:51:06;;;;;;;1.40;1.30;;;;;;;-3.20;82.80;98056.03;5094996;28;20040;-75
2024/01/15 04:53:35;;;;;;;2.40;2.22;;;;;;;-3.30;82.70;98053.22;5095839;28;20071;-75
2024/01/15 04:56:06;;;;;;;3.90;3.28;;;;;;;-3.36;82.83;98043.97;5095362;28;20036;-74
2024/01/15 04:58:35;;;;;;;1.60;1.50;;;;;;;-3.42;82.82;98047.13;5094884;28;20131;-74
2024/01/15 05:01:04;;;;;;;1.33;1.27;;;;;;;-3.48;83.08;98049.44;5095755;28;20047;-74
2024/01/15 05:03:33;;;;;;;1.88;1.60;;;;;;;-3.50;82.96;98052.69;5094330;28;20067;-74
2024/01/15 05:06:02;;;;;;;2.80;1.67;;;;;;;-3.54;82.63;98043.44;5096065;28;20105;-74
2024/01/15 05:08:32;;;;;;;1.08;1.08;;;;;;;-3.58;82.60;98036.69;5096336;28;20094;-74
2024/01/15 05:11:01;;;;;;;2.38;2.17;;;;;;;-3.65;83.07;98033.19;5095942;28;20035;-74
2024/01/15 05:13:31;;;;;;;6.10;2.40;;;;;;;-3.54;83.17;98023.50;5095809;28;20379;-77
2024/01/15 05:16:00;;;;;;;1.50;1.40;;;;;;;-3.67;82.71;98014.84;5096031;28;20036;-77
2024/01/15 05:18:29;;;;;;;1.45;1.35;;;;;;;-3.69;82.61;98028.91;5094870;28;20036;-77
2024/01/15 05:20:58;;;;;;;0.90;0.90;;;;;;;-3.71;83.06;98034.66;5078215;28;20068;-77
2024/01/15 05:23:27;;;;;;;4.00;3.17;;;;;;;-3.71;82.53;98032.16;5096134;28;20043;-77
2024/01/15 05:25:56;;;;;;;1.42;1.33;;;;;;;-3.71;82.93;98009.72;5096272;28;20071;-77
2024/01/15 05:28:25;;;;;;;1.45;1.38;;;;;;;-3.59;82.75;98015.06;5094279;28;20040;-77
2024/01/15 05:30:55;;;;;;;3.83;3.50;;;;;;;-3.56;82.52;98020.13;5095516;28;20032;-77
2024/01/15 05:33:25;;;;;;;4.05;3.00;;;;;;;-3.78;82.81;98007.88;5095492;28;20055;-75
2024/01/15 05:35:54;;;;;;;2.50;2.33;;;;;;;-3.60;82.38;98043.28;5095248;28;20070;-74
2024/01/15 05:38:23;;;;;;;20.45;5.45;;;;;;;-3.63;82.43;98044.06;5095463;28;20079;-74
2024/01/15 05:40:52;;;;;;;3.00;2.60;;;;;;;-3.69;82.75;98038.03;5094229;28;20066;-74
2024/01/15 05:43:21;;;;;;;5.93;3.45;;;;;;;-3.67;82.98;98038.94;5095081;28;20114;-74
2024/01/15 05:45:49;;;;;;;3.75;3.47;;;;;;;-3.75;82.92;98027.91;5095263;28;20431;-75
2024/01/15 05:48:20;;;;;;;;;;;;;;;-3.82;82.50;98036.00;5095442;28;20032;-74
2024/01/15 05:50:49;;;;;;;1.42;1.33;;;;;;;-3.87;83.00;98038.38;5093965;28;20281;-74
2024/01/15 05:53:18;;;;;;;2.72;2.53;;;;;;;-4.03;82.78;98015.47;5094846;28;20523;-75
2024/01/15 05:55:47;;;;;;;2.22;1.83;;;;;;;-3.89;82.46;98044.97;5095123;28;20386;-75
2024/01/15 05:58:16;;;;;;;5.53;4.05;;;;;;;-3.94;82.59;98040.63;5095153;28;20040;-75
2024/01/15 06:00:46;;;;;;;1.77;1.67;;;;;;;-3.98;82.80;98037.19;5094840;28;20040;-75
2024/01/15 06:03:15;;;;;;;6.95;6.38;;;;;;;-4.30;82.41;97991.47;5095035;28;20078;-75
2024/01/15 06:05:45;;;;;;;4.28;2.42;;;;;;;-4.02;82.53;98052.00;5094915;28;20131;-75
2024/01/15 06:08:14;;;;;;;2.15;2.05;;;;;;;-4.18;82.82;98040.75;5093631;28;20516;-75
2024/01/15 06:10:43;;;;;;;7.90;4.63;;;;;;;-4.21;82.62;98044.00;5094596;28;20051;-75
2024/01/15 06:13:13;;;;;;;1.55;1.45;;;;;;;-4.16;82.37;98047.47;5094961;28;20490;-75
2024/01/15 06:15:42;;;;;;;9.80;4.07;;;;;;;-4.17;82.07;98053.25;5076186;28;20055;-75
2024/01/15 06:18:11;;;;;;;2.25;2.13;;;;;;;-4.27;82.44;98046.28;5093420;28;20050;-75
2024/01/15 06:20:40;;;;;;;2.17;2.08;;;;;;;-4.22;82.45;98054.75;5094610;28;20040;-75
2024/01/15 06:23:11;;;;;;;1.10;1.10;;;;;;;-4.29;82.06;98022.16;5093209;28;20036;-75
2024/01/15 06:25:40;;;;;;;2.60;2.33;;;;;;;-4.08;82.70;98056.00;5094576;28;20039;-75
2024/01/15 06:28:09;;;;;;;6.93;3.67;;;;;;;-3.93;82.66;98057.25;5094082;28;20379;-75
2024/01/15 06:30:39;;;;;;;6.35;4.72;;;;;;;-3.98;82.34;98068.75;5094457;28;20048;-75
2024/01/15 06:33:08;;;;;;;5.57;5.03;;;;;;;-4.04;82.50;98063.56;5094383;28;20036;-75
2024/01/15 06:35:37;;;;;;;3.15;2.95;;;;;;;-4.03;82.80;98061.13;5094228;28;20040;-75
2024/01/15 06:38:06;;;;;;;2.90;2.57;;;;;;;-3.94;83.12;98055.59;5094676;28;20040;-78
2024/01/15 06:40:37;;;;;;;7.20;2.95;;;;;;;-3.88;83.37;98060.72;5093426;28;20284;-77
2024/01/15 06:43:06;;;;;;;2.90;2.70;;;;;;;-4.05;83.43;98056.91;5094736;28;20040;-78
2024/01/15 06:45:35;;;;;;;2.10;2.00;;;;;;;-4.30;83.64;98055.31;5075896;28;20054;-77
2024/01/15 06:48:07;;;;;;;0.98;0.98;;;;;;;-4.46;83.31;98058.97;5076719;28;20056;-77
2024/01/15 06:50:36;;;;;;;2.25;2.15;;;;;;;-4.48;84.21;98068.03;5094191;28;20090;-75
2024/01/15 06:53:05;;;;;;;2.72;1.40;;;;;;;-4.46;84.38;98058.97;5092941;28;20036;-77
2024/01/15 06:55:34;;;;;;;5.38;4.45;;;;;;;-4.44;84.07;98057.38;5094477;28;20071;-78
2024/01/15 06:58:05;;;;;;;1.00;1.00;;;;;;;-4.36;85.03;98065.94;5092397;28;20402;-78
2024/01/15 07:00:34;;;;;;;7.35;4.03;;;;;;;-4.26;84.45;98072.88;5092543;28;20055;-78
2024/01/15 07:03:04;;;;;;;7.03;2.67;;;;;;;-4.04;85.44;98064.44;5093588;28;20036;-75
2024/01/15 07:05:33;;;;;;;1.75;1.65;;;;;;;-3.75;84.98;98057.81;5092655;28;20106;-75
2024/01/15 07:08:01;;;;;;;1.65;1.55;;;;;;;-3.80;85.44;98066.78;5092600;28;20054;-76
2024/01/15 07:10:30;;;;;;;8.27;5.20;;;;;;;-3.81;84.82;98077.53;5093901;28;20089;-76
2024/01/15 07:13:06;;;;;;;5.47;4.38;;;;;;;-3.75;85.53;98080.22;5094425;28;20086;-78
2024/01/15 07:15:35;;;;;;;1.23;1.10;;;;;;;-3.72;85.53;98077.84;5094187;28;20544;-77
2024/01/15 07:18:04;;;;;;;2.70;2.50;;;;;;;-3.57;86.04;98090.72;5093669;28;20036;-77
2024/01/15 07:20:35;;;;;;;0.90;0.90;;;;;;;-3.29;86.01;98078.22;5102131;28;20044;-76
2024/01/15 07:23:05;;;;;;;0.98;0.95;;;;;;;-2.90;86.12;98079.28;5112973;28;20075;-76
2024/01/15 07:25:35;;;;;;;3.13;2.88;;;;;;;-2.40;86.75;98088.00;5113829;28;20058;-76
2024/01/15 07:28:06;;;;;;;3.13;2.87;;;;;;;-1.90;86.70;98091.69;5114228;28;20036;-76
2024/01/15 07:30:35;;;;;;;1.55;1.48;;;;;;;-1.73;86.21;98057.06;5112683;28;20118;-76
2024/01/15 07:33:04;;;;;;;1.30;1.23;;;;;;;-1.34;85.97;98087.03;5113803;28;20400;-76
2024/01/15 07:35:33;;;;;;;4.15;2.20;;;;;;;-1.15;85.52;98086.59;5112582;28;20063;-76
2024/01/15 07:38:02;;;;;;;2.50;2.30;;;;;;;-1.05;85.06;98091.78;5113680;28;20488;-76
2024/01/15 07:40:31;;;;;;;1.63;1.52;;;;;;;-0.99;84.59;98091.06;5114225;28;20501;-77
2024/01/15 07:43:00;;;;;;;1.48;1.40;;;;;;;-0.98;84.20;98093.56;5113891;28;20028;-77
2024/01/15 07:45:30;;;;;;;1.05;1.05;;;;;;;-0.94;83.84;98092.84;5113889;28;20393;-77
2024/01/15 07:47:59;;;;;;;1.63;1.52;;;;;;;-0.89;83.63;98097.94;5112331;28;20131;-77
2024/01/15 07:50:28;;;;;;;1.10;1.10;;;;;;;-0.88;83.22;98105.47;5113365;28;20040;-77
2024/01/15 07:52:57;;;;;;;1.57;1.47;;;;;;;-0.83;82.90;98103.03;5113510;28;20096;-77
2024/01/15 07:55:25;;;;;;;2.05;1.95;;;;;;;-0.78;82.40;98101.47;5113801;28;20051;-77
2024/01/15 07:57:58;;;;;;;2.25;1.42;;;;;;;-0.73;82.23;98114.91;5113410;28;20044;-77
2024/01/15 08:00:44;;;;;;;0.80;0.80;;;;;;;-0.72;82.16;98116.63;5113751;28;20039;-76
2024/01/15 08:03:15;;;;;;;0.95;0.95;;;;;;;-0.73;81.65;98112.41;5113254;28;20043;-76
2024/01/15 08:05:44;;;;;;;1.48;1.35;;;;;;;-0.70;81.58;98114.97;5113461;28;20054;-76
2024/01/15 08:08:13;;;;;;;1.20;1.13;;;;;;;-0.67;81.44;98120.00;5113581;28;20035;-75
2024/01/15 08:10:43;;;;;;;2.65;2.45;;;;;;;-0.68;81.12;98129.22;5112332;28;20039;-75
2024/01/15 08:13:12;;;;;;;0.88;0.88;;;;;;;-0.67;81.03;98125.88;5095455;28;20047;-75
2024/01/15 08:15:42;;;;;;;1.00;0.97;;;;;;;-0.67;80.73;98130.03;5117323;28;20071;-75
2024/01/15 08:18:13;;;;;;;0.80;0.80;;;;;;;-0.71;80.42;98115.78;5117274;28;20642;-76
2024/01/15 08:20:42;;;;;;;1.48;1.38;;;;;;;-0.66;80.29;98126.72;5117040;28;20393;-77
2024/01/15 08:23:11;;;;;;;7.13;1.77;;;;;;;-0.63;80.17;98123.44;5117280;28;20495;-76
2024/01/15 08:25:40;;;;;;;0.88;0.88;;;;;;;-0.60;80.24;98126.00;5115862;28;20382;-76
2024/01/15 08:28:09;;;;;;;3.13;2.70;;;;;;;-0.64;80.40;98110.06;5116852;28;20497;-75
2024/01/15 08:30:38;;;;;;;1.77;1.67;;;;;;;-0.51;80.12;98122.00;5115509;28;20635;-75
2024/01/15 08:33:07;;;;;;;1.93;1.10;;;;;;;-0.43;80.07;98125.47;5117083;28;20493;-75
2024/01/15 08:35:51;;;;;;;0.80;0.80;;;;;;;-0.38;79.86;98121.38;5117019;28;20047;-75
2024/01/15 08:38:20;;;;;;;0.73;0.73;;;;;;;-0.33;79.60;98117.28;5115529;28;20134;-75
2024/01/15 08:40:51;;;;;;;0.80;0.80;;;;;;;-0.31;79.33;98128.16;5117231;28;20097;-75
2024/01/15 08:43:19;;;;;;;1.25;1.17;;;;;;;-0.30;79.47;98117.34;5115676;28;20043;-76
2024/01/15 08:45:48;;;;;;;2.13;2.03;;;;;;;-0.27;79.29;98112.38;5116402;28;20036;-76
2024/01/15 08:48:17;;;;;;;0.95;0.95;;;;;;;-0.18;79.41;98114.19;5115468;28;20044;-76
2024/01/15 08:50:46;;;;;;;0.50;0.50;;;;;;;-0.14;79.71;98119.28;5116398;28;20413;-76
2024/01/15 08:53:19;;;;;;;0.40;0.40;;;;;;;-0.06;79.74;98121.91;5116441;28;20047;-75
2024/01/15 08:55:47;;;;;;;0.68;0.68;;;;;;;-0.03;79.31;98119.44;5115381;28;20046;-74
2024/01/15 08:58:16;;;;;;;3.27;2.20;;;;;;;-0.18;79.45;98107.50;5115056;28;20043;-75
2024/01/15 09:00:46;;;;;;;3.15;2.00;;;;;;;-0.09;79.45;98122.69;5116286;28;20048;-74
2024/01/15 09:03:15;;;;;;;2.00;1.90;;;;;;;-0.07;79.72;98131.06;5098031;28;20039;-74
2024/01/15 09:05:44;;;;;;;2.97;2.78;;;;;;;-0.48;79.12;98066.91;5116114;28;20043;-74
2024/01/15 09:08:13;;;;;;;1.00;1.00;;;;;;;0.02;79.36;98139.56;5116276;28;20134;-74
2024/01/15 09:10:44;;;;;;;1.58;1.48;;;;;;;0.03;79.25;98146.25;5116322;28;20028;-74
2024/01/15 09:13:12;;;;;;;2.80;2.63;;;;;;;0.04;79.48;98142.94;5116581;28;20470;-75
2024/01/15 09:15:42;;;;;;;2.23;1.87;;;;;;;0.03;78.62;98151.28;5116044;27;20036;-73
2024/01/15 09:18:12;;;;;;;2.60;1.67;;;;;;;0.00;78.53;98132.84;5114759;28;20291;-74
2024/01/15 09:20:41;;;;;;;1.08;1.02;;;;;;;0.06;78.34;98151.31;5116032;28;20130;-74
2024/01/15 09:23:09;;;;;;;2.43;2.23;;;;;;;0.07;78.43;98136.31;5115702;28;20067;-74
2024/01/15 09:25:38;;;;;;;0.77;0.77;;;;;;;-0.10;78.15;98105.94;5115533;28;20473;-74
2024/01/15 09:28:08;;;;;;;4.87;4.03;;;;;;;0.17;77.57;98134.81;5114696;28;20047;-74
2024/01/15 09:30:37;;;;;;;2.35;2.15;;;;;;;0.25;77.14;98133.22;5114779;28;20064;-74
2024/01/15 09:33:06;;;;;;;5.30;1.25;;;;;;;0.34;76.47;98133.34;5115891;28;20093;-74
2024/01/15 09:35:35;;;;;;;0.90;0.90;;;;;;;0.43;76.39;98133.50;5114686;28;20036;-73
2024/01/15 09:38:05;;;;;;;1.08;1.02;;;;;;;0.50;75.49;98120.22;5115972;28;20319;-74
2024/01/15 09:40:34;;;;;;;0.52;0.52;;;;;;;0.25;75.59;98060.50;5116104;28;20074;-73
2024/01/15 09:43:05;;;;;;;0.70;0.70;;;;;;;0.72;75.42;98118.84;5115720;28;20048;-73
2024/01/15 09:45:35;;;;;;;0.70;0.70;;;;;;;0.88;75.45;98109.00;5114580;28;20088;-72
2024/01/15 09:48:05;;;;;;;0.60;0.60;;;;;;;1.00;74.89;98093.22;5115327;28;20093;-73
2024/01/15 09:50:34;;;;;;;0.77;0.60;;;;;;;1.16;74.12;98095.91;5115464;28;20048;-73
2024/01/15 09:53:04;;;;;;;8.97;2.43;;;;;;;1.31;74.01;98100.25;5114085;28;20039;-73
2024/01/15 09:55:33;;;;;;;0.90;0.88;;;;;;;1.46;73.74;98099.56;5115411;28;20735;-73
2024/01/15 09:58:02;;;;;;;3.22;3.03;;;;;;;1.41;73.03;98081.09;5115263;28;20070;-73
2024/01/15 10:00:31;;;;;;;2.83;1.15;;;;;;;1.55;72.28;98089.59;5113487;28;20058;-72
2024/01/15 10:03:04;;;;;;;2.28;2.08;;;;;;;1.62;71.58;98091.31;5113790;28;20395;-73
2024/01/15 10:05:33;;;;;;;2.38;2.17;;;;;;;1.28;71.69;98015.66;5115078;28;20105;-72
2024/01/15 10:08:03;;;;;;;1.63;1.52;;;;;;;1.77;71.64;98076.38;5114845;28;20047;-72
2024/01/15 10:10:32;;;;;;;2.88;2.08;;;;;;;1.53;70.68;98015.84;5114930;28;20047;-72
2024/01/15 10:13:01;;;;;;;1.08;1.05;;;;;;;1.92;71.11;98066.44;5113709;28;20031;-73
2024/01/15 10:15:30;;;;;;;2.75;1.35;;;;;;;1.99;70.40;98073.19;5113814;28;20112;-72
2024/01/15 10:17:59;;;;;;;0.50;0.50;;;;;;;1.97;70.52;98064.78;5113624;28;20036;-73
2024/01/15 10:20:29;;;;;;;0.98;0.98;;;;;;;2.09;69.73;98084.97;5096228;28;20063;-72
2024/01/15 10:22:59;;;;;;;2.10;1.65;;;;;;;2.15;69.83;98089.22;5114908;28;20556;-72
2024/01/15 10:25:27;;;;;;;1.05;1.05;;;;;;;2.10;69.90;98069.06;5115203;28;20043;-73
2024/01/15 10:28:03;;;;;;;1.10;1.02;;;;;;;2.17;69.59;98075.81;5114818;28;20036;-72
2024/01/15 10:30:33;;;;;;;2.83;2.38;;;;;;;2.20;68.72;98065.78;5114488;28;20051;-73
2024/01/15 10:33:04;;;;;;;0.80;0.73;;;;;;;2.23;68.78;98057.41;5115093;28;20044;-72
2024/01/15 10:35:36;;;;;;;3.42;1.23;;;;;;;2.38;68.01;98063.34;5114546;28;20053;-72
2024/01/15 10:38:07;;;;;;;2.53;1.90;;;;;;;2.51;68.38;98060.09;5113087;28;20413;-72
2024/01/15 10:40:36;;;;;;;5.82;1.88;;;;;;;2.53;67.49;98060.94;5114357;28;20082;-72
2024/01/15 10:43:05;;;;;;;1.33;1.23;;;;;;;2.56;66.82;98060.94;5114860;27;20038;-72
2024/01/15 10:45:37;;;;;;;1.75;1.65;;;;;;;2.63;67.38;98060.13;5114529;28;20088;-72
2024/01/15 10:48:09;;;;;;;2.80;1.85;;;;;;;2.70;67.47;98051.78;5114589;28;20039;-72
2024/01/15 10:50:45;;;;;;;0.40;0.40;;;;;;;2.87;67.41;98054.34;5113144;28;20031;-73
2024/01/15 10:53:16;;;;;;;1.48;1.38;;;;;;;3.14;66.49;98058.63;5114314;28;20520;-72
2024/01/15 10:55:48;;;;;;;0.55;0.55;;;;;;;3.51;66.58;98060.34;5114449;28;20405;-72
2024/01/15 10:58:22;;;;;;;3.55;2.28;;;;;;;3.79;66.38;98062.03;5114020;28;20545;-72
2024/01/15 11:00:51;;;;;;;1.10;0.85;;;;;;;3.87;65.38;98055.31;5114382;28;20047;-72
2024/01/15 11:03:20;;;;;;;2.00;1.90;;;;;;;3.74;64.11;98061.19;5114245;28;20047;-72
2024/01/15 11:05:50;;;;;;;0.38;0.38;;;;;;;3.72;64.75;98070.44;5114357;28;20035;-72
2024/01/15 11:08:19;;;;;;;0.60;0.60;;;;;;;3.56;64.60;98053.63;5114307;28;20036;-72
2024/01/15 11:10:51;;;;;;;0.60;0.60;;;;;;;3.58;64.29;98067.09;5113054;28;20032;-72
2024/01/15 11:13:21;;;;;;;1.27;1.25;;;;;;;3.53;63.96;98068.75;5114224;28;20071;-73
2024/01/15 11:16:02;;;;;;;0.90;0.90;;;;;;;3.53;63.89;98063.72;5113968;28;20134;-73
2024/01/15 11:18:36;;;;;;;0.88;0.85;;;;;;;3.49;64.39;98062.03;5113849;28;20508;-72
2024/01/15 11:21:24;;;;;;;0.40;0.40;;;;;;;3.47;64.07;98062.88;5113888;28;20040;-73
2024/01/15 11:23:58;;;;;;;3.40;2.55;;;;;;;3.31;64.21;98051.94;5114144;28;20101;-73
2024/01/15 11:26:36;;;;;;;0.85;0.85;;;;;;;3.22;63.59;98062.84;5114146;28;20143;-72
2024/01/15 11:29:07;;;;;;;1.60;1.50;;;;;;;3.13;64.05;98056.94;5113823;28;20072;-72
2024/01/15 11:31:58;;;;;;;2.38;1.95;;;;;;;3.12;64.03;98055.28;5114078;28;20610;-72
2024/01/15 11:34:48;;;;;;;0.85;0.70;;;;;;;3.19;64.36;98051.91;5114042;28;20058;-72
2024/01/15 11:37:19;;;;;;;12.77;6.60;;;;;;;3.22;64.55;98047.72;5113929;28;20130;-73
2024/01/15 11:39:47;;;;;;;1.58;1.48;;;;;;;3.13;63.78;98041.81;5112612;28;20074;-72
2024/01/15 11:42:18;;;;;;;2.00;1.20;;;;;;;3.11;63.81;98038.44;5110334;28;20371;-72
2024/01/15 11:44:48;;;;;;;2.15;1.95;;;;;;;3.00;63.58;98019.97;5113981;28;20108;-72
2024/01/15 11:47:16;;;;;;;1.40;1.30;;;;;;;3.06;64.23;98025.00;5096187;28;20085;-72
2024/01/15 11:50:01;;;;;;;0.82;0.82;;;;;;;3.02;64.70;98038.44;5117879;28;20035;-72